トロンハイム の空港の天気 - METARとTAF

Trondheim / Vaernes ( ENVA / TRD ) - ノルウェー ヌール・トロンデラーグ県、Stjordal
飛行場実況気象(Metar)
観測時間02/26 03:50 CET (02/26 02:50 UTC)
風向・風速南東 5m/s
視程10km以上
天気現象
なし
気温-13℃
湿度66%
気圧1042hPa
METARENVA 260250Z 13009KT CAVOK M13/M18 Q1042 RMK WIND 670FT 10010KT
過去の天気等 Google飛行場航空写真 Wunderground天気予報

過去48時間のMETAR

飛行場予報(TAF)
発表時間: -
TAF ENVA 2600/2624 11008KT CAVOK